createdAt,value
2022-09-27T00:06:57.922Z,90.27
2022-09-27T00:17:02.681Z,86.67
2022-09-27T00:27:06.099Z,88.90
2022-09-27T00:37:11.836Z,89.73
2022-09-27T00:47:24.604Z,85.17
2022-09-27T00:57:29.969Z,86.57
2022-09-27T01:07:33.447Z,85.13
2022-09-27T01:17:53.058Z,85.40
2022-09-27T01:28:24.563Z,88.47
2022-09-27T01:38:44.192Z,90.87
2022-09-27T01:48:52.223Z,88.07
2022-09-27T01:59:07.226Z,88.03
2022-09-27T02:09:14.659Z,87.90
2022-09-27T02:19:40.210Z,87.30
2022-09-27T02:29:51.005Z,86.33
2022-09-27T02:39:56.300Z,83.87
2022-09-27T02:50:26.492Z,89.47
2022-09-27T03:01:06.006Z,86.43
2022-09-27T03:11:22.213Z,84.87
2022-09-27T03:21:27.060Z,81.40
2022-09-27T03:31:30.611Z,85.70
2022-09-27T03:41:54.254Z,87.40
2022-09-27T03:51:57.857Z,86.03
2022-09-27T04:02:02.687Z,84.83
2022-09-27T04:12:26.027Z,86.80
2022-09-27T04:22:30.873Z,86.60
2022-09-27T04:32:34.486Z,81.73
2022-09-27T04:42:57.973Z,82.90
2022-09-27T04:53:01.702Z,85.47
2022-09-27T05:03:07.253Z,84.47
2022-09-27T05:13:30.550Z,85.67
2022-09-27T05:23:35.352Z,84.93
2022-09-27T05:33:39.349Z,94.90
2022-09-27T05:44:13.298Z,88.77
2022-09-27T05:54:24.196Z,90.27
2022-09-27T06:04:30.325Z,100.67
2022-09-27T06:14:56.377Z,96.43
2022-09-27T06:25:22.094Z,90.53
2022-09-27T06:35:39.276Z,94.87
2022-09-27T06:45:44.779Z,104.93
2022-09-27T06:56:16.421Z,96.70
2022-09-27T07:06:29.450Z,97.60
2022-09-27T07:16:39.441Z,100.20
2022-09-27T07:26:44.894Z,94.97
2022-09-27T07:36:49.870Z,101.93
2022-09-27T07:46:54.765Z,103.77
2022-09-27T07:57:03.364Z,110.97
2022-09-27T08:07:10.277Z,109.40
2022-09-27T08:17:18.367Z,109.67
2022-09-27T08:27:41.860Z,114.70
2022-09-27T08:38:12.157Z,115.27
2022-09-27T08:48:19.990Z,132.57
2022-09-27T08:58:29.758Z,120.88
2022-09-27T09:08:51.079Z,124.28
2022-09-27T09:19:18.262Z,134.57
2022-09-27T09:30:18.545Z,133.27
2022-09-27T09:40:31.291Z,134.95
2022-09-27T09:50:48.598Z,135.32
2022-09-27T10:00:57.593Z,143.77
2022-09-27T10:11:02.667Z,130.57
2022-09-27T10:21:35.089Z,151.25
2022-09-27T10:31:46.166Z,152.80
2022-09-27T10:41:53.274Z,139.07
2022-09-27T10:52:14.480Z,133.30
2022-09-27T11:02:23.562Z,133.98
2022-09-27T11:12:42.109Z,130.18
2022-09-27T11:23:27.948Z,135.43
2022-09-27T11:33:55.488Z,144.25
2022-09-27T11:44:27.052Z,136.90
2022-09-27T11:54:50.941Z,127.20
2022-09-27T12:05:32.599Z,144.05
2022-09-27T12:15:47.030Z,180.55
2022-09-27T12:25:54.421Z,127.90
2022-09-27T12:36:10.753Z,113.72
2022-09-27T12:46:30.819Z,131.10
2022-09-27T12:56:49.868Z,113.77
2022-09-27T13:07:19.222Z,107.00
2022-09-27T13:17:51.425Z,115.82
2022-09-27T13:28:36.652Z,114.40
2022-09-27T13:39:05.851Z,107.10
2022-09-27T13:49:23.635Z,106.23
2022-09-27T13:59:52.917Z,114.43
2022-09-27T14:10:24.444Z,105.50
2022-09-27T14:20:35.559Z,106.53
2022-09-27T14:30:40.907Z,100.87
2022-09-27T14:41:04.269Z,101.77
2022-09-27T14:51:21.841Z,104.73
2022-09-27T15:01:26.577Z,97.47
2022-09-27T15:11:34.898Z,101.33
2022-09-27T15:21:39.738Z,98.10
2022-09-27T15:31:43.371Z,104.47
2022-09-27T15:52:43.984Z,93.63
2022-09-27T16:02:47.731Z,92.77
2022-09-27T16:12:52.520Z,91.07
2022-09-27T16:22:57.173Z,92.23
2022-09-27T16:33:01.762Z,90.43
2022-09-27T16:43:07.453Z,88.33
2022-09-27T16:53:13.048Z,89.93
2022-09-27T17:03:16.406Z,88.67
2022-09-27T17:13:22.385Z,89.77
2022-09-27T17:23:25.784Z,90.20
2022-09-27T17:33:31.253Z,93.70
2022-09-27T17:43:36.478Z,95.17
2022-09-27T17:53:41.130Z,88.50
2022-09-27T18:03:44.965Z,90.13
2022-09-27T18:13:50.793Z,108.97
2022-09-27T18:23:56.641Z,110.83
2022-09-27T18:34:03.000Z,103.00
2022-09-27T18:44:07.926Z,110.43
2022-09-27T18:54:18.423Z,118.23
2022-09-27T19:04:24.823Z,111.23
2022-09-27T19:14:29.690Z,113.07
2022-09-27T19:24:33.061Z,107.07
2022-09-27T19:34:38.330Z,89.63
2022-09-27T19:44:41.573Z,92.87
2022-09-27T19:54:46.297Z,103.57
2022-09-27T20:04:49.588Z,111.00
2022-09-27T20:14:54.221Z,111.23
2022-09-27T20:24:57.813Z,110.20
2022-09-27T20:35:03.975Z,125.17
2022-09-27T20:45:08.190Z,93.23
2022-09-27T20:55:12.954Z,98.73
2022-09-27T21:05:16.397Z,93.40
2022-09-27T21:15:21.017Z,106.03
2022-09-27T21:25:24.760Z,125.87
2022-09-27T21:35:29.470Z,92.17
2022-09-27T21:45:33.261Z,93.33
2022-09-27T21:55:38.149Z,96.83
2022-09-27T22:05:45.640Z,91.60
2022-09-27T22:15:50.567Z,89.53
2022-09-27T22:25:53.836Z,90.67
2022-09-27T22:35:58.422Z,92.80
2022-09-27T22:46:02.233Z,90.83
2022-09-27T22:56:09.824Z,90.27
2022-09-27T23:06:14.160Z,89.20
2022-09-27T23:16:24.470Z,90.57
2022-09-27T23:26:29.561Z,87.70
2022-09-27T23:36:35.513Z,89.97
2022-09-27T23:46:40.151Z,87.53
2022-09-27T23:56:44.763Z,90.73
